createdAt,value
2022-12-19T00:01:17.320Z,82.71
2022-12-19T00:03:44.787Z,82.42
2022-12-19T00:06:11.994Z,82.56
2022-12-19T00:08:39.047Z,82.69
2022-12-19T00:11:05.973Z,82.89
2022-12-19T00:13:40.965Z,83.04
2022-12-19T00:16:14.387Z,83.20
2022-12-19T00:18:45.800Z,83.23
2022-12-19T00:21:16.057Z,83.33
2022-12-19T00:23:43.826Z,83.48
2022-12-19T00:26:20.890Z,83.33
2022-12-19T00:28:49.745Z,83.23
2022-12-19T00:31:18.249Z,83.27
2022-12-19T00:33:46.778Z,83.13
2022-12-19T00:36:17.084Z,83.28
2022-12-19T00:38:51.421Z,83.26
2022-12-19T00:41:21.264Z,83.14
2022-12-19T00:43:48.604Z,83.17
2022-12-19T00:46:16.813Z,83.28
2022-12-19T00:48:44.337Z,83.32
2022-12-19T00:51:15.276Z,83.08
2022-12-19T00:53:43.032Z,82.89
2022-12-19T00:56:12.625Z,82.85
2022-12-19T00:58:44.957Z,82.96
2022-12-19T01:01:17.474Z,82.95
2022-12-19T01:04:04.479Z,83.26
2022-12-19T01:06:32.415Z,83.56
2022-12-19T01:09:00.254Z,83.48
2022-12-19T01:11:41.335Z,83.45
2022-12-19T01:14:08.274Z,83.57
2022-12-19T01:16:35.436Z,83.56
2022-12-19T01:19:02.512Z,83.40
2022-12-19T01:21:32.058Z,83.38
2022-12-19T01:23:59.417Z,83.29
2022-12-19T01:26:26.323Z,83.39
2022-12-19T01:28:53.201Z,83.34
2022-12-19T01:31:21.062Z,83.32
2022-12-19T01:33:47.952Z,83.32
2022-12-19T01:36:17.473Z,83.15
2022-12-19T01:38:44.324Z,82.97
2022-12-19T01:41:11.845Z,82.75
2022-12-19T01:43:59.584Z,82.82
2022-12-19T01:46:32.686Z,82.75
2022-12-19T01:49:00.722Z,82.86
2022-12-19T01:51:33.664Z,83.11
2022-12-19T01:54:06.016Z,83.33
2022-12-19T01:56:37.222Z,83.37
2022-12-19T01:59:08.644Z,83.25
2022-12-19T02:01:48.990Z,83.25
2022-12-19T02:04:22.929Z,83.33
2022-12-19T02:06:51.343Z,83.53
2022-12-19T02:09:24.531Z,83.23
2022-12-19T02:11:53.671Z,83.17
2022-12-19T02:14:21.554Z,83.52
2022-12-19T02:16:56.893Z,83.70
2022-12-19T02:20:37.026Z,83.66
2022-12-19T02:23:25.074Z,83.45
2022-12-19T02:26:12.119Z,83.44
2022-12-19T02:28:57.366Z,83.44
2022-12-19T02:31:31.186Z,83.31
2022-12-19T02:34:08.844Z,83.44
2022-12-19T02:36:45.445Z,83.55
2022-12-19T02:39:19.965Z,83.52
2022-12-19T02:41:51.590Z,83.35
2022-12-19T02:44:25.735Z,83.24
2022-12-19T02:46:54.084Z,82.94
2022-12-19T02:49:31.103Z,82.89
2022-12-19T02:51:59.343Z,82.97
2022-12-19T02:54:27.056Z,82.96
2022-12-19T02:57:01.494Z,82.90
2022-12-19T02:59:48.251Z,82.92
2022-12-19T03:02:27.101Z,82.98
2022-12-19T03:05:00.134Z,82.88
2022-12-19T03:07:37.061Z,82.90
2022-12-19T03:10:13.357Z,82.92
2022-12-19T03:12:49.638Z,82.82
2022-12-19T03:15:17.680Z,82.87
2022-12-19T03:17:45.304Z,83.01
2022-12-19T03:20:21.061Z,82.90
2022-12-19T03:22:48.412Z,83.02
2022-12-19T03:25:16.036Z,83.05
2022-12-19T03:27:45.411Z,82.98
2022-12-19T03:30:15.912Z,82.94
2022-12-19T03:32:47.562Z,82.78
2022-12-19T03:35:19.708Z,82.89
2022-12-19T03:37:49.238Z,82.83
2022-12-19T03:40:20.501Z,82.91
2022-12-19T03:43:06.564Z,82.72
2022-12-19T03:45:37.332Z,82.93
2022-12-19T03:48:09.339Z,82.70
2022-12-19T03:50:46.294Z,82.68
2022-12-19T03:53:24.148Z,82.80
2022-12-19T03:55:55.863Z,82.54
2022-12-19T03:58:29.598Z,82.57
2022-12-19T04:00:57.637Z,82.54
2022-12-19T04:03:25.738Z,82.37
2022-12-19T04:05:54.356Z,82.38
2022-12-19T04:08:24.013Z,82.50
2022-12-19T04:10:55.505Z,82.52
2022-12-19T04:13:28.652Z,82.50
2022-12-19T04:16:05.056Z,82.42
2022-12-19T04:18:34.718Z,82.48
2022-12-19T04:21:09.770Z,82.36
2022-12-19T04:23:41.285Z,82.36
2022-12-19T04:26:12.385Z,82.42
2022-12-19T04:28:44.925Z,82.46
2022-12-19T04:31:14.858Z,82.44
2022-12-19T04:33:42.031Z,82.31
2022-12-19T04:36:11.352Z,82.29
2022-12-19T04:38:38.537Z,82.39
2022-12-19T04:41:05.663Z,82.49
2022-12-19T04:43:32.811Z,82.51
2022-12-19T04:46:00.379Z,82.40
2022-12-19T04:48:28.032Z,82.52
2022-12-19T04:50:56.313Z,82.47
2022-12-19T04:53:23.467Z,82.44
2022-12-19T04:55:50.610Z,82.42
2022-12-19T04:58:21.872Z,82.53
2022-12-19T05:00:49.638Z,82.35
2022-12-19T05:03:16.873Z,82.33
2022-12-19T05:05:44.037Z,82.32
2022-12-19T05:08:11.586Z,82.36
2022-12-19T05:10:40.212Z,82.41
2022-12-19T05:13:09.326Z,82.21
2022-12-19T05:15:36.484Z,82.23
2022-12-19T05:18:04.235Z,82.17
2022-12-19T05:20:31.548Z,82.10
2022-12-19T05:23:02.964Z,82.14
2022-12-19T05:25:31.680Z,82.25
2022-12-19T05:27:59.024Z,82.14
2022-12-19T05:30:26.183Z,82.10
2022-12-19T05:32:53.325Z,82.14
2022-12-19T05:35:20.715Z,82.20
2022-12-19T05:37:48.167Z,82.32
2022-12-19T05:40:16.175Z,82.28
2022-12-19T05:42:43.461Z,82.14
2022-12-19T05:45:12.905Z,82.16
2022-12-19T05:47:40.024Z,82.07
2022-12-19T05:50:08.301Z,82.06
2022-12-19T05:52:35.526Z,81.96
2022-12-19T05:55:02.764Z,82.05
2022-12-19T05:57:29.921Z,82.07
2022-12-19T05:59:57.027Z,82.01
2022-12-19T06:02:24.705Z,82.11
2022-12-19T06:04:52.218Z,82.05
2022-12-19T06:07:21.040Z,82.11
2022-12-19T06:09:48.597Z,82.12
2022-12-19T06:12:15.845Z,81.89
2022-12-19T06:14:43.009Z,81.87
2022-12-19T06:17:10.291Z,81.89
2022-12-19T06:19:37.435Z,81.80
2022-12-19T06:22:04.623Z,81.71
2022-12-19T06:24:31.705Z,81.78
2022-12-19T06:26:58.998Z,81.94
2022-12-19T06:29:26.115Z,81.72
2022-12-19T06:31:53.270Z,81.74
2022-12-19T06:34:46.939Z,81.69
2022-12-19T06:37:08.620Z,81.55
2022-12-19T06:39:35.967Z,81.56
2022-12-19T06:42:32.412Z,81.54
2022-12-19T06:44:59.929Z,81.57
2022-12-19T06:47:27.975Z,81.63
2022-12-19T06:49:55.194Z,81.66
2022-12-19T06:52:23.555Z,81.83
2022-12-19T06:54:50.954Z,81.84
2022-12-19T06:57:19.407Z,81.84
2022-12-19T06:59:46.833Z,81.91
2022-12-19T07:02:27.349Z,81.75
2022-12-19T07:05:01.794Z,81.55
2022-12-19T07:07:31.265Z,81.47
2022-12-19T07:09:59.274Z,81.53
2022-12-19T07:12:27.611Z,81.42
2022-12-19T07:14:55.284Z,81.44
2022-12-19T07:17:23.597Z,81.22
2022-12-19T07:19:52.139Z,80.71
2022-12-19T07:22:19.449Z,80.70
2022-12-19T07:24:47.048Z,80.50
2022-12-19T07:27:15.324Z,80.21
2022-12-19T07:29:42.677Z,79.81
2022-12-19T07:32:10.027Z,79.45
2022-12-19T07:34:37.233Z,79.03
2022-12-19T07:37:04.362Z,78.62
2022-12-19T07:39:31.987Z,78.13
2022-12-19T07:41:59.289Z,78.07
2022-12-19T07:44:36.529Z,77.92
2022-12-19T07:47:03.756Z,77.51
2022-12-19T07:49:31.437Z,77.10
2022-12-19T07:51:58.897Z,76.92
2022-12-19T07:54:26.135Z,75.93
2022-12-19T07:56:53.839Z,75.53
2022-12-19T07:59:27.156Z,75.50
2022-12-19T08:01:57.248Z,75.49
2022-12-19T08:04:25.689Z,75.19
2022-12-19T08:06:53.037Z,74.63
2022-12-19T08:09:20.319Z,73.80
2022-12-19T08:11:47.711Z,73.40
2022-12-19T08:14:15.022Z,73.28
2022-12-19T08:17:18.165Z,73.01
2022-12-19T08:19:29.594Z,72.57
2022-12-19T08:21:56.814Z,72.34
2022-12-19T08:24:23.918Z,71.40
2022-12-19T08:26:51.314Z,71.39
2022-12-19T08:29:18.728Z,71.81
2022-12-19T08:31:46.319Z,71.28
2022-12-19T08:34:14.082Z,71.11
2022-12-19T08:36:41.744Z,71.03
2022-12-19T08:39:09.138Z,70.65
2022-12-19T08:41:36.958Z,70.15
2022-12-19T08:44:04.267Z,69.84
2022-12-19T08:46:31.526Z,69.31
2022-12-19T08:48:59.533Z,68.70
2022-12-19T08:51:27.344Z,68.28
2022-12-19T08:53:54.446Z,67.92
2022-12-19T08:56:23.979Z,67.01
2022-12-19T08:58:53.660Z,67.12
2022-12-19T09:01:26.178Z,66.55
2022-12-19T09:04:36.511Z,66.55
2022-12-19T09:06:41.675Z,66.66
2022-12-19T09:09:08.933Z,66.89
2022-12-19T09:11:48.025Z,66.09
2022-12-19T09:14:15.741Z,65.04
2022-12-19T09:16:48.588Z,65.83
2022-12-19T09:19:16.695Z,65.68
2022-12-19T09:21:44.059Z,65.53
2022-12-19T09:24:12.617Z,64.29
2022-12-19T09:26:42.151Z,64.44
2022-12-19T09:29:19.697Z,64.18
2022-12-19T09:31:53.885Z,64.85
2022-12-19T09:34:26.059Z,65.04
2022-12-19T09:37:05.682Z,64.78
2022-12-19T09:39:34.316Z,65.41
2022-12-19T09:42:19.014Z,64.84
2022-12-19T09:45:00.370Z,65.02
2022-12-19T09:47:31.114Z,65.02
2022-12-19T09:50:01.042Z,64.14
2022-12-19T09:52:34.129Z,63.80
2022-12-19T09:55:08.716Z,63.67
2022-12-19T09:57:41.970Z,62.31
2022-12-19T10:00:16.033Z,62.93
2022-12-19T10:02:48.837Z,62.06
2022-12-19T10:05:36.559Z,62.31
2022-12-19T10:08:19.078Z,62.60
2022-12-19T10:12:41.396Z,62.54
2022-12-19T10:14:01.223Z,60.68
2022-12-19T10:17:22.073Z,59.97
2022-12-19T10:19:47.415Z,59.84
2022-12-19T10:22:25.762Z,59.67
2022-12-19T10:25:12.207Z,60.38
2022-12-19T10:27:58.614Z,60.04
2022-12-19T10:30:29.080Z,60.34
2022-12-19T10:33:20.742Z,60.57
2022-12-19T10:35:54.339Z,60.17
2022-12-19T10:38:30.413Z,59.62
2022-12-19T10:41:13.645Z,59.65
2022-12-19T10:43:49.618Z,59.81
2022-12-19T10:46:22.730Z,61.01
2022-12-19T10:48:51.937Z,60.91
2022-12-19T10:51:26.562Z,59.74
2022-12-19T10:53:58.549Z,59.70
2022-12-19T10:56:36.723Z,60.04
2022-12-19T10:59:07.076Z,59.26
2022-12-19T11:01:40.003Z,60.67
2022-12-19T11:04:30.795Z,60.72
2022-12-19T11:07:18.961Z,59.88
2022-12-19T11:09:51.350Z,59.61
2022-12-19T11:17:00.325Z,60.68
2022-12-19T11:19:27.866Z,60.04
2022-12-19T11:24:30.022Z,59.90
2022-12-19T11:27:08.379Z,59.98
2022-12-19T11:29:39.636Z,60.62
2022-12-19T11:30:47.582Z,60.81
2022-12-19T11:32:41.241Z,61.00
2022-12-19T11:35:19.728Z,60.62
2022-12-19T11:37:55.952Z,60.21
2022-12-19T11:40:33.163Z,60.74
2022-12-19T11:43:42.522Z,60.25
2022-12-19T11:45:58.289Z,60.85
2022-12-19T11:48:33.572Z,61.27
2022-12-19T11:51:07.956Z,60.98
2022-12-19T11:53:43.477Z,61.44
2022-12-19T11:56:16.341Z,61.99
2022-12-19T11:58:48.486Z,62.27
2022-12-19T12:01:25.402Z,61.98
2022-12-19T12:04:09.876Z,61.63
2022-12-19T12:06:47.386Z,61.79
2022-12-19T12:12:28.405Z,62.10
2022-12-19T12:20:45.008Z,62.24
2022-12-19T12:21:54.295Z,62.23
2022-12-19T12:28:47.950Z,62.85
2022-12-19T12:31:26.566Z,62.00
2022-12-19T12:31:44.252Z,62.08
2022-12-19T12:31:46.814Z,62.44
2022-12-19T12:31:48.509Z,62.12
2022-12-19T12:35:13.682Z,61.58
2022-12-19T12:38:00.355Z,62.14
2022-12-19T12:39:24.337Z,61.75
2022-12-19T12:42:04.825Z,62.01
2022-12-19T12:44:41.142Z,62.51
2022-12-19T12:47:20.511Z,62.51
2022-12-19T12:49:49.810Z,62.41
2022-12-19T12:52:21.136Z,62.42
2022-12-19T12:54:49.990Z,62.85
2022-12-19T12:57:37.434Z,62.98
2022-12-19T13:00:27.185Z,63.34
2022-12-19T13:02:59.461Z,63.49
2022-12-19T13:05:40.862Z,63.02
2022-12-19T13:08:34.200Z,63.57
2022-12-19T13:11:06.590Z,63.73
2022-12-19T13:13:58.022Z,63.48
2022-12-19T13:16:53.239Z,63.98
2022-12-19T13:19:27.870Z,63.65
2022-12-19T13:22:23.559Z,64.43
2022-12-19T13:24:53.249Z,64.85
2022-12-19T13:27:42.250Z,64.72
2022-12-19T13:30:20.752Z,65.01
2022-12-19T13:33:09.504Z,65.13
2022-12-19T13:36:33.308Z,65.42
2022-12-19T13:39:58.423Z,65.57
2022-12-19T13:41:58.978Z,66.17
2022-12-19T13:44:27.777Z,66.31
2022-12-19T13:46:56.457Z,66.64
2022-12-19T13:49:34.144Z,66.67
2022-12-19T13:52:04.179Z,66.85
2022-12-19T13:54:34.934Z,67.04
2022-12-19T13:57:09.729Z,67.33
2022-12-19T13:59:59.398Z,67.65
2022-12-19T14:02:34.859Z,68.05
2022-12-19T14:06:15.368Z,68.20
2022-12-19T14:08:17.844Z,68.43
2022-12-19T14:11:35.036Z,68.68
2022-12-19T14:14:10.114Z,68.91
2022-12-19T14:16:44.411Z,69.39
2022-12-19T14:19:23.625Z,69.55
2022-12-19T14:22:08.004Z,69.60
2022-12-19T14:24:38.676Z,69.96
2022-12-19T14:28:20.805Z,70.39
2022-12-19T14:30:30.971Z,70.58
2022-12-19T14:33:46.858Z,70.99
2022-12-19T14:36:07.181Z,70.94
2022-12-19T14:39:21.229Z,71.22
2022-12-19T14:42:00.355Z,71.34
2022-12-19T14:52:36.017Z,71.46
2022-12-19T14:54:07.607Z,71.86
2022-12-19T14:54:13.636Z,71.76
2022-12-19T14:54:25.924Z,72.02
2022-12-19T14:56:45.083Z,72.05
2022-12-19T14:59:04.995Z,72.27
2022-12-19T15:01:35.275Z,72.42
2022-12-19T15:04:52.258Z,72.65
2022-12-19T15:07:07.122Z,72.74
2022-12-19T15:11:04.819Z,72.81
2022-12-19T15:14:50.873Z,73.16
2022-12-19T15:16:05.687Z,73.30
2022-12-19T15:18:42.817Z,72.99
2022-12-19T15:21:12.626Z,73.26
2022-12-19T15:23:40.029Z,73.60
2022-12-19T15:26:13.172Z,73.65
2022-12-19T15:28:43.224Z,73.61
2022-12-19T15:31:24.598Z,73.80
2022-12-19T15:36:39.226Z,74.02
2022-12-19T15:39:06.627Z,74.26
2022-12-19T15:41:34.239Z,74.18
2022-12-19T15:44:04.826Z,74.21
2022-12-19T15:46:33.954Z,74.46
2022-12-19T15:49:01.189Z,74.52
2022-12-19T15:51:28.293Z,74.40
2022-12-19T15:54:08.914Z,74.68
2022-12-19T15:56:41.905Z,74.55
2022-12-19T15:59:20.817Z,74.69
2022-12-19T16:01:48.340Z,74.77
2022-12-19T16:04:16.454Z,74.69
2022-12-19T16:06:44.241Z,75.00
2022-12-19T16:09:22.064Z,75.02
2022-12-19T16:11:49.471Z,75.20
2022-12-19T16:14:16.717Z,75.14
2022-12-19T16:16:55.795Z,75.13
2022-12-19T16:19:31.461Z,75.22
2022-12-19T16:22:00.504Z,75.40
2022-12-19T16:24:27.659Z,75.05
2022-12-19T16:26:58.600Z,75.29
2022-12-19T16:29:27.878Z,75.32
2022-12-19T16:31:55.478Z,75.38
2022-12-19T16:34:25.413Z,75.45
2022-12-19T16:36:54.324Z,75.50
2022-12-19T16:39:21.454Z,75.70
2022-12-19T16:41:48.760Z,75.46
2022-12-19T16:44:20.007Z,75.95
2022-12-19T16:46:50.896Z,75.73
2022-12-19T16:49:24.055Z,75.81
2022-12-19T16:51:52.177Z,75.79
2022-12-19T16:54:20.382Z,75.74
2022-12-19T16:56:51.897Z,75.85
2022-12-19T16:59:22.233Z,75.96
2022-12-19T17:01:51.193Z,75.84
2022-12-19T17:04:20.600Z,75.92
2022-12-19T17:06:47.977Z,75.67
2022-12-19T17:09:17.956Z,75.79
2022-12-19T17:11:49.127Z,76.09
2022-12-19T17:14:20.057Z,75.81
2022-12-19T17:16:47.481Z,75.95
2022-12-19T17:19:21.387Z,75.93
2022-12-19T17:21:49.464Z,76.02
2022-12-19T17:24:17.707Z,75.72
2022-12-19T17:26:45.099Z,76.03
2022-12-19T17:29:12.673Z,75.70
2022-12-19T17:31:41.116Z,75.80
2022-12-19T17:34:13.733Z,75.79
2022-12-19T17:36:40.939Z,75.69
2022-12-19T17:39:18.759Z,75.58
2022-12-19T17:41:46.155Z,75.48
2022-12-19T17:44:13.398Z,75.65
2022-12-19T17:46:40.741Z,75.69
2022-12-19T17:49:15.980Z,75.54
2022-12-19T17:51:52.465Z,75.55
2022-12-19T17:54:20.139Z,75.47
2022-12-19T17:56:47.843Z,75.47
2022-12-19T17:59:15.415Z,75.42
2022-12-19T18:01:43.796Z,75.10
2022-12-19T18:04:15.677Z,75.24
2022-12-19T18:06:43.355Z,75.14
2022-12-19T18:09:21.399Z,75.18
2022-12-19T18:11:48.516Z,75.20
2022-12-19T18:14:16.331Z,75.15
2022-12-19T18:16:44.359Z,75.23
2022-12-19T18:19:19.323Z,75.02
2022-12-19T18:21:46.613Z,74.95
2022-12-19T18:24:14.949Z,75.42
2022-12-19T18:26:42.249Z,75.35
2022-12-19T18:29:09.887Z,75.28
2022-12-19T18:31:42.430Z,75.01
2022-12-19T18:34:19.084Z,75.14
2022-12-19T18:36:46.466Z,74.96
2022-12-19T18:39:22.824Z,74.76
2022-12-19T18:41:48.652Z,74.92
2022-12-19T18:44:18.709Z,74.81
2022-12-19T18:46:47.161Z,74.87
2022-12-19T18:49:18.272Z,74.94
2022-12-19T18:51:45.894Z,74.97
2022-12-19T18:54:17.804Z,74.83
2022-12-19T18:56:45.031Z,74.66
2022-12-19T18:59:12.458Z,74.67
2022-12-19T19:01:43.287Z,74.76
2022-12-19T19:04:13.332Z,74.79
2022-12-19T19:06:48.566Z,74.74
2022-12-19T19:09:20.346Z,74.43
2022-12-19T19:12:06.667Z,74.91
2022-12-19T19:14:34.463Z,74.75
2022-12-19T19:17:03.318Z,74.46
2022-12-19T19:19:30.895Z,74.48
2022-12-19T19:21:58.288Z,74.22
2022-12-19T19:24:26.151Z,74.54
2022-12-19T19:26:53.657Z,74.28
2022-12-19T19:29:20.766Z,74.44
2022-12-19T19:31:51.114Z,74.27
2022-12-19T19:34:24.459Z,74.07
2022-12-19T19:36:56.208Z,74.45
2022-12-19T19:39:24.208Z,74.24
2022-12-19T19:41:51.501Z,74.09
2022-12-19T19:44:18.589Z,74.16
2022-12-19T19:46:46.320Z,73.96
2022-12-19T19:49:13.539Z,74.01
2022-12-19T19:51:40.711Z,73.98
2022-12-19T19:54:08.290Z,73.93
2022-12-19T19:56:35.656Z,73.81
2022-12-19T19:59:03.064Z,73.75
2022-12-19T20:01:30.610Z,73.73
2022-12-19T20:03:58.277Z,74.05
2022-12-19T20:06:25.717Z,74.00
2022-12-19T20:08:53.694Z,74.04
2022-12-19T20:11:21.075Z,73.73
2022-12-19T20:13:48.505Z,73.87
2022-12-19T20:16:18.104Z,74.14
2022-12-19T20:18:50.243Z,73.87
2022-12-19T20:21:18.487Z,74.11
2022-12-19T20:23:46.150Z,74.15
2022-12-19T20:26:15.686Z,73.73
2022-12-19T20:28:48.361Z,73.75
2022-12-19T20:31:16.757Z,73.52
2022-12-19T20:33:45.174Z,73.62
2022-12-19T20:36:15.502Z,73.51
2022-12-19T20:38:42.821Z,73.80
2022-12-19T20:41:10.555Z,73.43
2022-12-19T20:43:38.884Z,73.95
2022-12-19T20:46:08.075Z,74.09
2022-12-19T20:48:35.424Z,73.98
2022-12-19T20:51:04.726Z,73.76
2022-12-19T20:53:31.993Z,74.09
2022-12-19T20:56:01.730Z,73.89
2022-12-19T20:58:30.443Z,74.01
2022-12-19T21:01:03.763Z,73.81
2022-12-19T21:03:31.329Z,74.07
2022-12-19T21:05:59.067Z,73.97
2022-12-19T21:08:27.069Z,73.65
2022-12-19T21:10:55.212Z,73.53
2022-12-19T21:13:23.359Z,73.62
2022-12-19T21:15:54.944Z,73.42
2022-12-19T21:18:22.198Z,73.50
2022-12-19T21:20:50.724Z,73.37
2022-12-19T21:23:18.122Z,73.66
2022-12-19T21:25:45.593Z,73.42
2022-12-19T21:28:12.943Z,73.75
2022-12-19T21:30:40.290Z,73.65
2022-12-19T21:33:08.359Z,73.69
2022-12-19T21:35:39.078Z,73.67
2022-12-19T21:38:06.572Z,73.55
2022-12-19T21:40:36.787Z,74.08
2022-12-19T21:43:09.784Z,73.80
2022-12-19T21:45:39.294Z,74.28
2022-12-19T21:48:07.153Z,74.53
2022-12-19T21:50:38.664Z,75.24
2022-12-19T21:53:06.175Z,75.12
2022-12-19T21:55:33.676Z,75.70
2022-12-19T21:58:02.040Z,75.96
2022-12-19T22:00:29.382Z,76.13
2022-12-19T22:03:13.474Z,76.62
2022-12-19T22:05:41.958Z,77.01
2022-12-19T22:08:10.439Z,76.83
2022-12-19T22:10:38.948Z,77.16
2022-12-19T22:13:06.192Z,77.40
2022-12-19T22:15:33.295Z,77.18
2022-12-19T22:18:00.656Z,77.64
2022-12-19T22:20:27.824Z,77.53
2022-12-19T22:22:54.933Z,77.41
2022-12-19T22:25:25.290Z,77.69
2022-12-19T22:27:56.043Z,77.64
2022-12-19T22:30:23.549Z,77.78
2022-12-19T22:32:50.737Z,78.22
2022-12-19T22:35:18.405Z,78.33
2022-12-19T22:37:45.666Z,78.08
2022-12-19T22:40:14.441Z,78.11
2022-12-19T22:42:41.841Z,78.30
2022-12-19T22:45:11.669Z,78.44
2022-12-19T22:47:41.500Z,78.68
2022-12-19T22:50:11.622Z,78.78
2022-12-19T22:52:39.460Z,78.52
2022-12-19T22:55:07.953Z,78.58
2022-12-19T22:57:35.421Z,78.65
2022-12-19T23:00:02.805Z,78.35
2022-12-19T23:02:30.319Z,78.68
2022-12-19T23:04:58.030Z,78.57
2022-12-19T23:07:25.352Z,78.70
2022-12-19T23:09:52.771Z,78.74
2022-12-19T23:12:20.202Z,78.89
2022-12-19T23:14:47.344Z,78.81
2022-12-19T23:17:14.558Z,79.05
2022-12-19T23:19:41.875Z,79.39
2022-12-19T23:22:09.405Z,79.31
2022-12-19T23:24:37.082Z,79.57
2022-12-19T23:27:05.261Z,79.84
2022-12-19T23:29:32.690Z,79.82
2022-12-19T23:32:00.006Z,79.95
2022-12-19T23:34:27.314Z,80.07
2022-12-19T23:37:10.707Z,80.09
2022-12-19T23:39:39.027Z,80.25
2022-12-19T23:42:06.646Z,80.19
2022-12-19T23:44:34.306Z,80.49
2022-12-19T23:47:03.897Z,80.69
2022-12-19T23:49:31.763Z,80.77
2022-12-19T23:51:58.902Z,80.76
2022-12-19T23:54:26.193Z,80.80
2022-12-19T23:56:53.644Z,81.07
2022-12-19T23:59:20.906Z,81.27
